createdAt,value
2023-03-05T00:02:08.590Z,3.40
2023-03-05T00:04:37.202Z,4.57
2023-03-05T00:07:12.195Z,3.97
2023-03-05T00:09:41.093Z,4.20
2023-03-05T00:12:10.662Z,3.97
2023-03-05T00:14:39.625Z,3.42
2023-03-05T00:17:08.132Z,2.83
2023-03-05T00:19:37.559Z,3.67
2023-03-05T00:22:07.941Z,3.90
2023-03-05T00:24:37.704Z,2.92
2023-03-05T00:27:06.071Z,3.17
2023-03-05T00:29:36.717Z,3.55
2023-03-05T00:32:05.925Z,3.17
2023-03-05T00:34:36.590Z,2.92
2023-03-05T00:37:08.809Z,3.10
2023-03-05T00:39:36.932Z,2.20
2023-03-05T00:42:05.845Z,3.50
2023-03-05T00:44:34.167Z,2.70
2023-03-05T00:47:02.745Z,2.50
2023-03-05T00:49:31.557Z,2.42
2023-03-05T00:51:59.955Z,3.25
2023-03-05T00:54:31.088Z,2.38
2023-03-05T00:57:01.257Z,3.05
2023-03-05T00:59:29.511Z,2.38
2023-03-05T01:01:58.995Z,3.25
2023-03-05T01:04:28.801Z,2.50
2023-03-05T01:07:00.926Z,2.70
2023-03-05T01:09:31.412Z,2.70
2023-03-05T01:12:01.287Z,2.60
2023-03-05T01:14:29.789Z,2.17
2023-03-05T01:16:59.886Z,2.00
2023-03-05T01:19:28.169Z,2.40
2023-03-05T01:21:56.427Z,3.40
2023-03-05T01:24:31.111Z,2.15
2023-03-05T01:27:03.657Z,2.47
2023-03-05T01:29:32.280Z,2.15
2023-03-05T01:32:10.893Z,2.40
2023-03-05T01:34:39.323Z,2.45
2023-03-05T01:37:08.564Z,2.55
2023-03-05T01:39:36.976Z,2.38
2023-03-05T01:42:08.591Z,3.28
2023-03-05T01:44:37.099Z,2.30
2023-03-05T01:47:05.831Z,4.20
2023-03-05T01:49:37.236Z,1.90
2023-03-05T01:52:09.112Z,1.90
2023-03-05T01:54:40.628Z,2.95
2023-03-05T01:57:14.746Z,2.13
2023-03-05T01:59:47.488Z,2.38
2023-03-05T02:02:16.566Z,2.45
2023-03-05T02:04:48.242Z,2.10
2023-03-05T02:07:18.415Z,2.25
2023-03-05T02:09:47.463Z,2.13
2023-03-05T02:12:17.958Z,2.03
2023-03-05T02:14:47.906Z,2.10
2023-03-05T02:17:25.580Z,2.42
2023-03-05T02:20:02.147Z,1.95
2023-03-05T02:22:32.177Z,2.53
2023-03-05T02:25:08.226Z,1.90
2023-03-05T02:27:36.830Z,3.13
2023-03-05T02:30:06.025Z,2.38
2023-03-05T02:32:34.405Z,1.67
2023-03-05T02:35:05.030Z,2.10
2023-03-05T02:37:39.517Z,1.95
2023-03-05T02:40:10.284Z,1.85
2023-03-05T02:42:38.964Z,1.70
2023-03-05T02:45:08.280Z,2.42
2023-03-05T02:47:37.012Z,1.83
2023-03-05T02:50:07.247Z,2.33
2023-03-05T02:52:38.580Z,2.20
2023-03-05T02:55:07.705Z,2.23
2023-03-05T02:57:36.370Z,2.78
2023-03-05T03:00:05.948Z,1.73
2023-03-05T03:02:34.414Z,2.50
2023-03-05T03:05:15.326Z,1.98
2023-03-05T03:07:45.108Z,2.08
2023-03-05T03:10:16.512Z,2.30
2023-03-05T03:12:46.529Z,2.40
2023-03-05T03:15:17.054Z,2.00
2023-03-05T03:17:45.681Z,2.03
2023-03-05T03:20:17.198Z,2.08
2023-03-05T03:22:48.524Z,2.10
2023-03-05T03:25:19.354Z,1.47
2023-03-05T03:27:48.159Z,2.25
2023-03-05T03:30:18.861Z,1.63
2023-03-05T03:32:51.331Z,2.17
2023-03-05T03:35:21.110Z,1.58
2023-03-05T03:37:52.233Z,1.58
2023-03-05T03:40:20.891Z,1.60
2023-03-05T03:42:49.379Z,1.55
2023-03-05T03:45:18.079Z,1.40
2023-03-05T03:47:46.610Z,1.88
2023-03-05T03:50:15.682Z,2.88
2023-03-05T03:52:44.909Z,2.25
2023-03-05T03:55:14.408Z,2.00
2023-03-05T03:57:43.562Z,2.88
2023-03-05T04:00:13.232Z,2.33
2023-03-05T04:02:43.195Z,1.88
2023-03-05T04:05:12.150Z,1.75
2023-03-05T04:07:40.552Z,1.42
2023-03-05T04:10:09.811Z,2.05
2023-03-05T04:12:45.519Z,1.88
2023-03-05T04:15:15.396Z,1.83
2023-03-05T04:17:45.827Z,2.13
2023-03-05T04:20:17.017Z,1.77
2023-03-05T04:25:17.994Z,2.05
2023-03-05T04:30:48.497Z,2.50
2023-03-05T04:33:17.783Z,2.50
2023-03-05T04:35:50.549Z,2.05
2023-03-05T04:38:19.256Z,1.90
2023-03-05T04:40:49.076Z,2.10
2023-03-05T04:43:20.096Z,2.08
2023-03-05T04:45:48.773Z,1.90
2023-03-05T04:48:17.544Z,1.90
2023-03-05T04:50:46.074Z,2.25
2023-03-05T04:53:28.285Z,1.85
2023-03-05T04:56:01.783Z,1.83
2023-03-05T04:58:43.146Z,1.73
2023-03-05T05:01:17.590Z,1.87
2023-03-05T05:03:47.898Z,1.65
2023-03-05T05:06:15.932Z,1.75
2023-03-05T05:08:44.653Z,2.10
2023-03-05T05:11:17.255Z,1.95
2023-03-05T05:13:47.698Z,2.53
2023-03-05T05:16:17.293Z,2.40
2023-03-05T05:18:45.516Z,2.10
2023-03-05T05:21:15.931Z,2.80
2023-03-05T05:23:43.981Z,1.88
2023-03-05T05:26:15.851Z,2.10
2023-03-05T05:28:47.939Z,2.30
2023-03-05T05:33:47.043Z,1.88
2023-03-05T05:36:24.238Z,2.50
2023-03-05T05:38:54.591Z,2.13
2023-03-05T05:41:25.409Z,2.35
2023-03-05T05:43:55.052Z,1.70
2023-03-05T05:46:25.989Z,2.17
2023-03-05T05:48:58.057Z,1.77
2023-03-05T05:51:26.369Z,2.25
2023-03-05T05:53:54.981Z,2.60
2023-03-05T05:56:25.676Z,2.25
2023-03-05T05:58:55.213Z,2.08
2023-03-05T06:01:26.397Z,2.33
2023-03-05T06:03:55.125Z,1.30
2023-03-05T06:06:25.836Z,2.53
2023-03-05T06:08:55.007Z,2.95
2023-03-05T06:11:24.992Z,1.80
2023-03-05T06:13:53.341Z,1.60
2023-03-05T06:16:26.347Z,1.80
2023-03-05T06:18:55.108Z,2.88
2023-03-05T06:21:23.983Z,1.77
2023-03-05T06:23:52.898Z,1.73
2023-03-05T06:26:26.006Z,2.10
2023-03-05T06:28:56.939Z,1.42
2023-03-05T06:31:27.766Z,2.10
2023-03-05T06:33:57.025Z,2.17
2023-03-05T06:36:26.893Z,2.13
2023-03-05T06:38:56.442Z,2.05
2023-03-05T06:41:27.574Z,1.90
2023-03-05T06:43:57.344Z,1.55
2023-03-05T06:46:37.027Z,2.53
2023-03-05T06:49:07.139Z,1.58
2023-03-05T06:51:37.784Z,2.03
2023-03-05T06:54:10.410Z,1.85
2023-03-05T06:56:40.684Z,2.40
2023-03-05T06:59:09.963Z,2.53
2023-03-05T07:01:40.330Z,2.50
2023-03-05T07:04:10.439Z,1.83
2023-03-05T07:06:42.109Z,1.83
2023-03-05T07:09:16.845Z,1.27
2023-03-05T07:11:49.629Z,1.60
2023-03-05T07:14:17.873Z,1.58
2023-03-05T07:16:47.456Z,1.48
2023-03-05T07:19:15.794Z,1.67
2023-03-05T07:21:43.861Z,1.50
2023-03-05T07:24:14.192Z,1.77
2023-03-05T07:26:43.143Z,1.77
2023-03-05T07:29:11.749Z,1.50
2023-03-05T07:31:43.690Z,1.27
2023-03-05T07:34:13.499Z,1.52
2023-03-05T07:36:42.922Z,1.52
2023-03-05T07:39:12.927Z,1.30
2023-03-05T07:41:42.517Z,1.63
2023-03-05T07:44:11.132Z,1.30
2023-03-05T07:46:39.522Z,1.30
2023-03-05T07:49:08.464Z,1.67
2023-03-05T07:51:41.317Z,1.58
2023-03-05T07:54:11.911Z,2.47
2023-03-05T07:56:40.809Z,1.35
2023-03-05T07:59:13.988Z,1.40
2023-03-05T08:01:46.312Z,1.67
2023-03-05T08:04:17.544Z,2.22
2023-03-05T08:06:50.819Z,1.00
2023-03-05T08:09:20.379Z,1.63
2023-03-05T08:11:51.568Z,1.38
2023-03-05T08:14:23.407Z,2.22
2023-03-05T08:16:53.847Z,1.35
2023-03-05T08:19:22.322Z,1.98
2023-03-05T08:21:55.651Z,1.25
2023-03-05T08:24:29.948Z,1.38
2023-03-05T08:27:00.781Z,1.27
2023-03-05T08:29:29.181Z,1.40
2023-03-05T08:32:00.224Z,1.40
2023-03-05T08:34:30.148Z,1.73
2023-03-05T08:36:59.715Z,1.38
2023-03-05T08:39:30.235Z,1.83
2023-03-05T08:41:58.571Z,2.17
2023-03-05T08:44:26.864Z,1.23
2023-03-05T08:46:57.996Z,1.77
2023-03-05T08:49:29.123Z,1.88
2023-03-05T08:52:00.621Z,1.45
2023-03-05T08:54:29.251Z,1.60
2023-03-05T08:56:57.720Z,1.60
2023-03-05T08:59:25.997Z,1.42
2023-03-05T09:01:54.237Z,1.70
2023-03-05T09:04:22.569Z,1.58
2023-03-05T09:06:54.237Z,1.23
2023-03-05T09:09:23.981Z,1.20
2023-03-05T09:11:52.334Z,1.65
2023-03-05T09:14:20.987Z,1.55
2023-03-05T09:16:49.547Z,1.30
2023-03-05T09:19:19.018Z,1.92
2023-03-05T09:21:47.832Z,1.90
2023-03-05T09:24:20.137Z,18.55
2023-03-05T09:29:19.774Z,2.45
2023-03-05T09:31:52.907Z,2.15
2023-03-05T09:34:21.804Z,1.95
2023-03-05T09:36:50.323Z,1.67
2023-03-05T09:39:18.897Z,1.83
2023-03-05T09:42:17.060Z,1.77
2023-03-05T09:44:49.621Z,1.95
2023-03-05T09:47:27.825Z,2.25
2023-03-05T09:50:00.626Z,2.15
2023-03-05T09:52:38.302Z,1.77
2023-03-05T09:55:18.293Z,2.35
2023-03-05T09:57:54.858Z,1.75
2023-03-05T10:00:31.538Z,1.60
2023-03-05T10:03:02.202Z,2.55
2023-03-05T10:05:45.886Z,2.55
2023-03-05T10:08:15.319Z,2.15
2023-03-05T10:10:53.452Z,2.13
2023-03-05T10:13:26.017Z,1.52
2023-03-05T10:16:02.989Z,1.85
2023-03-05T10:18:36.679Z,1.80
2023-03-05T10:21:07.451Z,2.03
2023-03-05T10:23:53.837Z,2.40
2023-03-05T10:26:31.212Z,1.73
2023-03-05T10:29:09.495Z,1.95
2023-03-05T10:31:43.454Z,1.70
2023-03-05T10:34:42.001Z,15.57
2023-03-05T10:37:25.066Z,2.58
2023-03-05T10:40:06.530Z,2.03
2023-03-05T10:42:40.847Z,1.42
2023-03-05T10:45:17.001Z,2.38
2023-03-05T10:47:48.953Z,1.80
2023-03-05T10:50:20.130Z,1.70
2023-03-05T10:52:53.836Z,2.17
2023-03-05T10:55:24.237Z,2.08
2023-03-05T10:57:52.452Z,2.35
2023-03-05T11:00:25.389Z,1.60
2023-03-05T11:02:57.131Z,1.85
2023-03-05T11:05:42.294Z,1.52
2023-03-05T11:08:25.146Z,1.60
2023-03-05T11:11:12.320Z,1.10
2023-03-05T11:13:47.341Z,1.23
2023-03-05T11:16:21.425Z,1.25
2023-03-05T11:18:50.473Z,1.02
2023-03-05T11:21:27.900Z,1.13
2023-03-05T11:24:07.392Z,1.52
2023-03-05T11:26:35.899Z,1.50
2023-03-05T11:29:09.985Z,1.27
2023-03-05T11:31:39.833Z,1.33
2023-03-05T11:34:12.383Z,1.50
2023-03-05T11:36:41.862Z,1.38
2023-03-05T11:39:12.266Z,1.23
2023-03-05T11:41:43.375Z,2.15
2023-03-05T11:44:14.751Z,1.35
2023-03-05T11:46:47.973Z,0.90
2023-03-05T11:49:19.529Z,1.20
2023-03-05T11:51:54.505Z,1.55
2023-03-05T11:54:28.056Z,1.10
2023-03-05T11:57:00.653Z,1.58
2023-03-05T11:59:31.661Z,1.98
2023-03-05T12:02:01.625Z,1.27
2023-03-05T12:04:31.863Z,1.33
2023-03-05T12:07:02.768Z,1.40
2023-03-05T12:09:43.108Z,1.20
2023-03-05T12:12:20.853Z,1.02
2023-03-05T12:14:54.581Z,1.40
2023-03-05T12:17:29.752Z,1.05
2023-03-05T12:19:59.943Z,1.10
2023-03-05T12:22:34.147Z,1.23
2023-03-05T12:25:28.126Z,1.35
2023-03-05T12:27:57.057Z,1.10
2023-03-05T12:30:55.553Z,1.23
2023-03-05T12:33:43.570Z,1.00
2023-03-05T12:36:37.778Z,1.00
2023-03-05T12:39:40.667Z,1.27
2023-03-05T12:45:28.968Z,1.20
2023-03-05T12:48:31.067Z,1.00
2023-03-05T12:51:00.839Z,1.52
2023-03-05T12:53:29.421Z,1.60
2023-03-05T12:56:12.804Z,1.90
2023-03-05T12:58:46.745Z,1.73
2023-03-05T13:01:29.223Z,1.77
2023-03-05T13:06:30.145Z,1.75
2023-03-05T13:09:00.708Z,1.80
2023-03-05T13:11:30.065Z,1.50
2023-03-05T13:13:59.345Z,1.33
2023-03-05T13:16:32.385Z,1.60
2023-03-05T13:19:02.790Z,2.05
2023-03-05T13:21:35.396Z,2.10
2023-03-05T13:24:05.009Z,1.67
2023-03-05T13:26:39.793Z,1.77
2023-03-05T13:29:11.611Z,2.88
2023-03-05T13:31:44.173Z,1.80
2023-03-05T13:34:19.232Z,1.83
2023-03-05T13:37:22.699Z,1.80
2023-03-05T13:39:56.892Z,2.03
2023-03-05T13:42:28.631Z,2.20
2023-03-05T13:45:00.579Z,2.00
2023-03-05T13:47:31.726Z,1.80
2023-03-05T13:50:02.589Z,1.70
2023-03-05T13:52:35.537Z,2.22
2023-03-05T13:55:06.436Z,2.28
2023-03-05T13:57:38.521Z,45.92
2023-03-05T14:00:28.976Z,14.40
2023-03-05T14:03:00.468Z,2.40
2023-03-05T14:05:31.491Z,2.58
2023-03-05T14:08:01.201Z,2.43
2023-03-05T14:10:32.755Z,2.08
2023-03-05T14:13:03.049Z,2.33
2023-03-05T14:15:34.408Z,2.40
2023-03-05T14:18:21.530Z,3.93
2023-03-05T14:21:06.283Z,3.80
2023-03-05T14:23:42.511Z,4.18
2023-03-05T14:26:30.213Z,2.40
2023-03-05T14:29:01.737Z,2.25
2023-03-05T14:31:32.255Z,3.15
2023-03-05T14:34:06.830Z,2.65
2023-03-05T14:36:42.561Z,1.83
2023-03-05T14:39:34.214Z,2.20
2023-03-05T14:42:25.447Z,2.22
2023-03-05T14:44:55.830Z,2.00
2023-03-05T14:47:25.488Z,2.10
2023-03-05T14:49:54.100Z,2.20
2023-03-05T14:52:27.410Z,2.58
2023-03-05T14:54:56.985Z,1.98
2023-03-05T14:57:28.302Z,2.08
2023-03-05T14:59:57.287Z,2.67
2023-03-05T15:02:26.644Z,2.30
2023-03-05T15:04:56.302Z,1.55
2023-03-05T15:07:28.292Z,2.28
2023-03-05T15:09:59.855Z,2.17
2023-03-05T15:12:28.258Z,2.28
2023-03-05T15:14:57.785Z,2.00
2023-03-05T15:17:35.046Z,2.03
2023-03-05T15:20:07.381Z,2.80
2023-03-05T15:22:35.762Z,2.20
2023-03-05T15:25:07.594Z,2.47
2023-03-05T15:27:37.606Z,2.40
2023-03-05T15:30:08.387Z,2.38
2023-03-05T15:32:36.688Z,2.15
2023-03-05T15:35:06.071Z,2.20
2023-03-05T15:37:35.284Z,2.33
2023-03-05T15:40:05.404Z,2.08
2023-03-05T15:42:33.761Z,2.00
2023-03-05T15:45:02.315Z,2.08
2023-03-05T15:47:33.512Z,2.60
2023-03-05T15:50:02.580Z,2.40
2023-03-05T15:52:31.171Z,2.08
2023-03-05T15:55:01.277Z,2.15
2023-03-05T15:57:30.866Z,2.55
2023-03-05T15:59:59.083Z,2.40
2023-03-05T16:02:27.756Z,2.22
2023-03-05T16:04:56.257Z,2.80
2023-03-05T16:07:24.895Z,2.50
2023-03-05T16:09:53.709Z,3.80
2023-03-05T16:12:24.709Z,7.88
2023-03-05T16:14:54.366Z,5.90
2023-03-05T16:17:23.585Z,2.53
2023-03-05T16:19:54.560Z,2.40
2023-03-05T16:22:23.796Z,2.65
2023-03-05T16:24:51.992Z,3.58
2023-03-05T16:27:20.667Z,2.75
2023-03-05T16:29:51.633Z,2.80
2023-03-05T16:32:22.186Z,2.97
2023-03-05T16:34:50.887Z,3.25
2023-03-05T16:37:20.874Z,2.72
2023-03-05T16:39:49.801Z,3.03
2023-03-05T16:42:18.336Z,3.05
2023-03-05T16:44:47.515Z,3.00
2023-03-05T16:47:16.329Z,2.95
2023-03-05T16:49:48.899Z,3.70
2023-03-05T16:52:19.746Z,3.30
2023-03-05T16:54:51.068Z,3.35
2023-03-05T16:57:19.968Z,4.25
2023-03-05T16:59:48.320Z,5.60
2023-03-05T17:02:16.793Z,5.60
2023-03-05T17:04:46.637Z,4.60
2023-03-05T17:07:14.991Z,5.13
2023-03-05T17:09:47.280Z,4.55
2023-03-05T17:12:15.564Z,4.80
2023-03-05T17:14:44.398Z,4.28
2023-03-05T17:17:14.884Z,5.05
2023-03-05T17:19:44.654Z,5.20
2023-03-05T17:22:16.437Z,3.80
2023-03-05T17:24:47.111Z,4.93
2023-03-05T17:27:19.278Z,3.75
2023-03-05T17:32:16.319Z,4.97
2023-03-05T17:34:44.685Z,5.82
2023-03-05T17:37:16.244Z,5.05
2023-03-05T17:39:46.025Z,4.95
2023-03-05T17:42:15.803Z,4.43
2023-03-05T17:44:44.091Z,4.93
2023-03-05T17:47:12.440Z,6.70
2023-03-05T17:49:40.727Z,5.82
2023-03-05T17:52:09.433Z,5.63
2023-03-05T17:54:40.714Z,6.13
2023-03-05T17:57:09.028Z,5.13
2023-03-05T17:59:37.799Z,6.22
2023-03-05T18:02:07.748Z,6.30
2023-03-05T18:04:37.527Z,6.43
2023-03-05T18:07:06.524Z,5.28
2023-03-05T18:09:35.141Z,6.47
2023-03-05T18:12:05.204Z,5.75
2023-03-05T18:14:33.616Z,5.25
2023-03-05T18:17:01.656Z,5.70
2023-03-05T18:19:30.383Z,6.30
2023-03-05T18:21:59.768Z,5.20
2023-03-05T18:24:28.379Z,5.95
2023-03-05T18:26:57.930Z,6.57
2023-03-05T18:29:29.451Z,6.97
2023-03-05T18:31:57.816Z,6.75
2023-03-05T18:34:27.361Z,6.43
2023-03-05T18:36:56.328Z,6.45
2023-03-05T18:39:24.873Z,6.70
2023-03-05T18:41:53.671Z,6.47
2023-03-05T18:44:21.824Z,6.85
2023-03-05T18:46:53.076Z,7.28
2023-03-05T18:49:21.408Z,8.63
2023-03-05T18:51:51.869Z,7.00
2023-03-05T18:54:21.595Z,7.10
2023-03-05T18:57:07.168Z,7.40
2023-03-05T18:59:38.202Z,6.50
2023-03-05T19:02:14.340Z,7.13
2023-03-05T19:04:44.639Z,8.15
2023-03-05T19:07:13.332Z,7.40
2023-03-05T19:09:52.499Z,7.70
2023-03-05T19:12:25.210Z,7.80
2023-03-05T19:14:53.532Z,8.90
2023-03-05T19:17:26.809Z,7.18
2023-03-05T19:19:57.918Z,7.80
2023-03-05T19:22:26.905Z,7.20
2023-03-05T19:25:01.084Z,7.50
2023-03-05T19:27:31.610Z,7.05
2023-03-05T19:30:00.895Z,7.32
2023-03-05T19:32:33.370Z,7.07
2023-03-05T19:35:02.271Z,7.32
2023-03-05T19:37:32.137Z,6.70
2023-03-05T19:40:00.644Z,7.65
2023-03-05T19:42:29.758Z,6.65
2023-03-05T19:45:00.143Z,6.70
2023-03-05T19:47:29.076Z,6.85
2023-03-05T19:50:00.536Z,5.90
2023-03-05T19:52:31.830Z,6.03
2023-03-05T19:55:01.892Z,6.40
2023-03-05T19:57:29.960Z,5.57
2023-03-05T19:59:58.337Z,5.97
2023-03-05T20:02:29.752Z,5.72
2023-03-05T20:04:59.607Z,5.68
2023-03-05T20:07:29.411Z,6.18
2023-03-05T20:10:00.123Z,5.72
2023-03-05T20:12:28.278Z,6.43
2023-03-05T20:14:57.440Z,5.88
2023-03-05T20:17:26.793Z,5.88
2023-03-05T20:20:03.248Z,6.93
2023-03-05T20:22:35.231Z,6.50
2023-03-05T20:25:04.238Z,6.63
2023-03-05T20:27:33.647Z,6.15
2023-03-05T20:30:02.019Z,6.50
2023-03-05T20:32:30.620Z,6.78
2023-03-05T20:34:58.947Z,7.28
2023-03-05T20:37:36.108Z,6.45
2023-03-05T20:40:08.558Z,7.05
2023-03-05T20:42:38.312Z,7.72
2023-03-05T20:45:07.278Z,7.90
2023-03-05T20:47:40.881Z,7.13
2023-03-05T20:50:11.349Z,7.80
2023-03-05T20:52:39.945Z,10.07
2023-03-05T20:55:13.266Z,8.02
2023-03-05T20:57:42.717Z,8.50
2023-03-05T21:00:12.927Z,7.38
2023-03-05T21:02:41.249Z,8.23
2023-03-05T21:05:12.766Z,8.50
2023-03-05T21:07:41.065Z,7.75
2023-03-05T21:10:14.438Z,8.55
2023-03-05T21:12:44.229Z,8.77
2023-03-05T21:15:18.185Z,7.15
2023-03-05T21:17:46.669Z,9.00
2023-03-05T21:20:17.589Z,8.43
2023-03-05T21:22:47.014Z,8.85
2023-03-05T21:25:25.832Z,9.20
2023-03-05T21:27:58.552Z,8.85
2023-03-05T21:30:31.511Z,8.55
2023-03-05T21:33:01.028Z,8.05
2023-03-05T21:35:32.683Z,8.02
2023-03-05T21:38:01.137Z,8.43
2023-03-05T21:40:32.697Z,8.40
2023-03-05T21:43:01.386Z,8.98
2023-03-05T21:45:30.383Z,9.38
2023-03-05T21:47:59.874Z,8.77
2023-03-05T21:50:28.554Z,9.20
2023-03-05T21:52:57.481Z,8.45
2023-03-05T21:55:33.044Z,7.95
2023-03-05T21:58:02.782Z,9.00
2023-03-05T22:00:31.187Z,10.18
2023-03-05T22:02:59.699Z,9.20
2023-03-05T22:05:28.079Z,8.85
2023-03-05T22:07:57.198Z,10.48
2023-03-05T22:10:25.964Z,9.88
2023-03-05T22:13:03.257Z,10.30
2023-03-05T22:15:45.143Z,10.32
2023-03-05T22:18:14.562Z,11.35
2023-03-05T22:20:44.126Z,11.52
2023-03-05T22:23:12.914Z,11.18
2023-03-05T22:25:41.795Z,10.25
2023-03-05T22:28:11.738Z,11.68
2023-03-05T22:30:45.436Z,11.50
2023-03-05T22:33:14.154Z,10.65
2023-03-05T22:35:43.797Z,11.80
2023-03-05T22:38:13.296Z,10.13
2023-03-05T22:40:43.433Z,11.18
2023-03-05T22:43:12.358Z,11.43
2023-03-05T22:45:42.170Z,11.00
2023-03-05T22:48:16.779Z,9.35
2023-03-05T22:50:59.600Z,9.52
2023-03-05T22:53:29.902Z,9.65
2023-03-05T22:55:58.408Z,9.35
2023-03-05T22:58:26.679Z,8.15
2023-03-05T23:00:54.752Z,8.75
2023-03-05T23:03:26.378Z,9.38
2023-03-05T23:05:54.448Z,8.95
2023-03-05T23:08:23.824Z,8.55
2023-03-05T23:10:53.054Z,9.65
2023-03-05T23:13:23.539Z,9.63
2023-03-05T23:15:52.615Z,9.55
2023-03-05T23:18:20.864Z,8.57
2023-03-05T23:20:53.581Z,9.57
2023-03-05T23:23:21.673Z,10.05
2023-03-05T23:25:51.591Z,9.88
2023-03-05T23:28:20.372Z,9.10
2023-03-05T23:30:49.004Z,10.73
2023-03-05T23:33:19.174Z,12.55
2023-03-05T23:35:53.066Z,10.82
2023-03-05T23:38:22.991Z,9.45
2023-03-05T23:40:54.081Z,10.25
2023-03-05T23:43:25.729Z,9.73
2023-03-05T23:45:55.862Z,10.15
2023-03-05T23:48:27.340Z,11.55
2023-03-05T23:50:57.934Z,9.70
2023-03-05T23:53:28.798Z,10.82
2023-03-05T23:55:58.076Z,10.93
2023-03-05T23:58:26.605Z,10.60
